Time;durP1;ratioP1;P1;durP2;ratioP2;P2;SDS_P1;SDS_P2;PMS_P1;PMS_P2;Temp;Humidity;BMP_temperature;BMP_pressure;BME280_temperature;BME280_humidity;BME280_pressure;Samples;Min_cycle;Max_cycle;Signal;HPM_P1;HPM_P2
2023/01/13 00:02:26;;;;;;;;;;;;;;;7.96;81.71;100199.64;107133;1263;61341;-89
2023/01/13 00:05:01;;;;;;;;;;;;;;;7.98;81.86;100198.28;107359;1267;124698;-89
2023/01/13 00:07:38;;;;;;;;;;;;;;;8.00;81.83;100194.84;106834;1261;65554;-89
2023/01/13 00:10:15;;;;;;;;;;;;;;;8.00;81.84;100195.55;106766;1262;124899;-88
2023/01/13 00:12:42;;;;;;;;;;;;;;;8.01;81.97;100194.52;106829;1260;61298;-88
2023/01/13 00:15:10;;;;;;;;;;;;;;;8.04;82.08;100194.44;106849;1266;124893;-87
2023/01/13 00:17:43;;;;;;;;;;;;;;;8.11;82.21;100194.10;106961;1260;72850;-89
2023/01/13 00:20:12;;;;;;;;;;;;;;;8.18;82.22;100187.11;106985;1262;65805;-88
2023/01/13 00:22:48;;;;;;;;;;;;;;;8.25;82.26;100182.74;107007;1260;125094;-88
2023/01/13 00:25:16;;;;;;;;;;;;;;;8.31;82.18;100173.64;107361;1261;59335;-87
2023/01/13 00:27:52;;;;;;;;;;;;;;;8.37;82.12;100174.12;107279;1259;124650;-86
2023/01/13 00:30:19;;;;;;;;;;;;;;;8.38;82.03;100166.29;107347;1259;74338;-87
2023/01/13 00:32:47;;;;;;;;;;;;;;;8.37;81.88;100167.48;107492;1258;66135;-88
2023/01/13 00:35:16;;;;;;;;;;;;;;;8.32;81.78;100161.42;107117;1263;125398;-88
2023/01/13 00:37:54;;;;;;;;;;;;;;;8.26;81.68;100158.82;107038;1264;61593;-89
2023/01/13 00:43:22;;;;;;;;;;;;;;;8.19;81.81;100154.98;107271;1259;74299;-88
2023/01/13 00:45:50;;;;;;;;;;;;;;;8.19;81.77;100153.92;107130;1262;124590;-88
2023/01/13 00:48:30;;;;;;;;;;;;;;;8.16;81.79;100150.36;107368;1261;71590;-87
2023/01/13 00:51:01;;;;;;;;;;;;;;;8.16;81.96;100154.36;107282;1263;59658;-88
2023/01/13 00:53:32;;;;;;;;;;;;;;;8.19;82.09;100150.77;107027;1260;61283;-87
2023/01/13 00:56:00;;;;;;;;;;;;;;;8.24;82.17;100148.27;107049;1261;74451;-85
2023/01/13 00:58:34;;;;;;;;;;;;;;;8.27;82.17;100140.31;107205;1261;124533;-86
2023/01/13 01:01:01;;;;;;;;;;;;;;;8.31;82.19;100138.31;107436;1262;72529;-85
2023/01/13 01:03:30;;;;;;;;;;;;;;;8.34;82.15;100135.08;107376;1263;125219;-86
2023/01/13 01:06:00;;;;;;;;;;;;;;;8.36;82.11;100128.81;106897;1264;62464;-87
2023/01/13 01:08:37;;;;;;;;;;;;;;;8.36;82.11;100128.99;107320;1261;74673;-87
2023/01/13 01:11:12;;;;;;;;;;;;;;;8.39;82.15;100126.96;107144;1264;124793;-86
2023/01/13 01:13:40;;;;;;;;;;;;;;;8.43;82.21;100121.31;107246;1264;71465;-86
2023/01/13 01:16:10;;;;;;;;;;;;;;;8.46;82.13;100118.77;107055;1264;124919;-86
2023/01/13 01:18:52;;;;;;;;;;;;;;;8.45;81.99;100112.29;107271;1259;59783;-86
2023/01/13 01:21:20;;;;;;;;;;;;;;;8.44;81.92;100109.27;107262;1259;125276;-87
2023/01/13 01:24:02;;;;;;;;;;;;;;;8.44;81.90;100108.57;107169;1259;65505;-88
2023/01/13 01:26:29;;;;;;;;;;;;;;;8.42;81.93;100106.60;106993;1261;71411;-89
2023/01/13 01:28:56;;;;;;;;;;;;;;;8.39;81.89;100106.69;107607;1263;125519;-87
2023/01/13 01:31:24;;;;;;;;;;;;;;;8.38;81.93;100104.39;107696;1259;61161;-89
2023/01/13 01:33:52;;;;;;;;;;;;;;;8.40;82.00;100096.73;107414;1261;123933;-89
2023/01/13 01:36:21;;;;;;;;;;;;;;;8.44;82.11;100096.15;107427;1264;65894;-90
2023/01/13 01:38:49;;;;;;;;;;;;;;;8.44;82.10;100087.78;107655;1261;71362;-86
2023/01/13 01:41:17;;;;;;;;;;;;;;;8.47;82.11;100085.39;108213;1260;124891;-88
2023/01/13 01:44:03;;;;;;;;;;;;;;;8.47;82.07;100084.52;107424;1260;61273;-89
2023/01/13 01:46:32;;;;;;;;;;;;;;;8.47;82.00;100074.38;107259;1262;124720;-88
2023/01/13 01:49:19;;;;;;;;;;;;;;;8.47;81.99;100071.75;107287;1261;66865;-88
2023/01/13 01:54:47;;;;;;;;;;;;;;;8.48;82.13;100063.39;107261;1261;61251;-88
2023/01/13 01:57:33;;;;;;;;;;;;;;;8.50;82.10;100065.55;107099;1262;124871;-89
2023/01/13 02:00:00;;;;;;;;;;;;;;;8.54;82.12;100065.10;107226;1261;73562;-90
2023/01/13 02:05:41;;;;;;;;;;;;;;;8.57;82.20;100050.65;107202;1260;71160;-89
2023/01/13 02:08:20;;;;;;;;;;;;;;;8.58;82.13;100049.45;107319;1260;61291;-89
2023/01/13 02:11:03;;;;;;;;;;;;;;;8.59;82.11;100048.75;107045;1258;124811;-90
2023/01/13 02:13:31;;;;;;;;;;;;;;;8.63;82.29;100050.77;107012;1264;74916;-89
2023/01/13 02:16:05;;;;;;;;;;;;;;;8.64;82.28;100049.22;107036;1260;125428;-89
2023/01/13 02:18:36;;;;;;;;;;;;;;;8.65;82.30;100048.02;107171;1260;72400;-87
2023/01/13 02:21:12;;;;;;;;;;;;;;;8.65;82.32;100045.05;107282;1259;124855;-88
2023/01/13 02:33:02;;;;;;;;;;;;;;;8.64;82.68;100033.48;107021;1260;72613;-86
2023/01/13 02:35:41;;;;;;;;;;;;;;;8.63;82.69;100032.06;107183;1261;60385;-87
2023/01/13 02:38:20;;;;;;;;;;;;;;;8.64;82.77;100029.10;107243;1261;61301;-87
2023/01/13 02:40:49;;;;;;;;;;;;;;;8.63;82.75;100022.79;107086;1259;124875;-86
2023/01/13 02:46:13;;;;;;;;;;;;;;;8.60;82.94;100014.50;107170;1261;124780;-88
2023/01/13 02:48:42;;;;;;;;;;;;;;;8.59;82.96;100013.95;107261;1260;61264;-87
2023/01/13 02:51:19;;;;;;;;;;;;;;;8.58;83.01;100009.40;107151;1260;125454;-87
2023/01/13 02:53:49;;;;;;;;;;;;;;;8.58;83.19;100009.39;107280;1260;74403;-87
2023/01/13 02:56:25;;;;;;;;;;;;;;;8.58;83.14;100003.63;107199;1261;67181;-87
2023/01/13 02:58:53;;;;;;;;;;;;;;;8.58;83.20;100001.51;107050;1259;124628;-87
2023/01/13 03:01:29;;;;;;;;;;;;;;;8.57;83.16;100003.24;107153;1264;61308;-87
2023/01/13 03:04:14;;;;;;;;;;;;;;;8.59;83.37;99997.15;106991;1261;125144;-87
2023/01/13 03:06:46;;;;;;;;;;;;;;;8.60;83.43;99995.10;106871;1261;73438;-87
2023/01/13 03:12:45;;;;;;;;;;;;;;;8.60;83.51;99995.09;106996;1260;71395;-91
2023/01/13 03:15:46;;;;;;;;;;;;;;;8.60;83.50;99992.98;106975;1260;61272;-90
2023/01/13 03:18:32;;;;;;;;;;;;;;;8.61;83.56;99990.91;106983;1263;61782;-90
2023/01/13 03:21:25;;;;;;;;;;;;;;;8.59;83.54;99987.38;107000;1260;73489;-89
2023/01/13 03:24:11;;;;;;;;;;;;;;;8.59;83.64;99985.80;107097;1263;67061;-89
2023/01/13 03:27:15;;;;;;;;;;;;;;;8.60;83.69;99983.04;107122;1259;72685;-88
2023/01/13 03:30:18;;;;;;;;;;;;;;;8.60;83.71;99983.90;107099;1260;59360;-89
2023/01/13 03:33:06;;;;;;;;;;;;;;;8.60;83.77;99983.21;107417;1260;59760;-89
2023/01/13 03:35:52;;;;;;;;;;;;;;;8.62;83.81;99981.84;107300;1260;124386;-89
2023/01/13 03:38:30;;;;;;;;;;;;;;;8.63;83.77;99979.94;107156;1260;65625;-89
2023/01/13 03:41:18;;;;;;;;;;;;;;;8.63;83.92;99980.81;107004;1259;124529;-89
2023/01/13 03:44:21;;;;;;;;;;;;;;;8.64;83.96;99978.91;107021;1260;61686;-88
2023/01/13 03:46:48;;;;;;;;;;;;;;;8.66;84.12;99978.44;106996;1261;125157;-85
2023/01/13 03:49:22;;;;;;;;;;;;;;;8.68;84.02;99977.77;107235;1258;73057;-86
2023/01/13 03:51:57;;;;;;;;;;;;;;;8.68;84.02;99977.42;106975;1259;124977;-87
2023/01/13 03:54:43;;;;;;;;;;;;;;;8.69;84.00;99975.69;107182;1260;70316;-86
2023/01/13 03:57:11;;;;;;;;;;;;;;;8.69;84.08;99975.88;107279;1261;61372;-86
2023/01/13 03:59:39;;;;;;;;;;;;;;;8.68;84.10;99973.05;107170;1260;124732;-87
2023/01/13 04:02:10;;;;;;;;;;;;;;;8.68;84.12;99972.52;107256;1260;72440;-86
2023/01/13 04:05:09;;;;;;;;;;;;;;;8.70;84.19;99975.00;107131;1259;124752;-86
2023/01/13 04:07:42;;;;;;;;;;;;;;;8.70;84.23;99969.44;106917;1260;73071;-86
2023/01/13 04:10:20;;;;;;;;;;;;;;;8.70;84.29;99964.71;107088;1260;124542;-86
2023/01/13 04:12:59;;;;;;;;;;;;;;;8.71;84.36;99966.83;107009;1264;61353;-88
2023/01/13 04:15:39;;;;;;;;;;;;;;;8.72;84.33;99964.20;106941;1260;124614;-86
2023/01/13 04:18:40;;;;;;;;;;;;;;;8.72;84.31;99965.27;107133;1260;66800;-85
2023/01/13 04:21:15;;;;;;;;;;;;;;;8.72;84.40;99962.45;107296;1260;71996;-87
2023/01/13 04:23:50;;;;;;;;;;;;;;;8.73;84.39;99961.95;107098;1260;61308;-87
2023/01/13 04:26:18;;;;;;;;;;;;;;;8.74;84.43;99956.02;106981;1261;60424;-87
2023/01/13 04:28:45;;;;;;;;;;;;;;;8.75;84.47;99954.47;106971;1261;124549;-88
2023/01/13 04:31:17;;;;;;;;;;;;;;;8.74;84.46;99951.48;107004;1261;66489;-88
2023/01/13 04:33:46;;;;;;;;;;;;;;;8.74;84.56;99949.55;107032;1260;124719;-89
2023/01/13 04:36:27;;;;;;;;;;;;;;;8.75;84.59;99946.77;107156;1259;61177;-89
2023/01/13 04:38:55;;;;;;;;;;;;;;;8.76;84.61;99949.06;107316;1262;61196;-88
2023/01/13 04:41:24;;;;;;;;;;;;;;;8.75;84.64;99950.96;107709;1261;125027;-88
2023/01/13 04:44:15;;;;;;;;;;;;;;;8.77;84.66;99949.25;107230;1259;67214;-88
2023/01/13 04:46:43;;;;;;;;;;;;;;;8.74;84.67;99948.68;107113;1262;124746;-87
2023/01/13 04:49:17;;;;;;;;;;;;;;;8.75;84.78;99951.16;107241;1258;59844;-88
2023/01/13 04:51:45;;;;;;;;;;;;;;;8.77;84.86;99953.98;107195;1259;124638;-87
2023/01/13 04:54:26;;;;;;;;;;;;;;;8.79;84.95;99953.66;107239;1260;73332;-88
2023/01/13 04:56:54;;;;;;;;;;;;;;;8.78;84.91;99959.05;107220;1262;66776;-89
2023/01/13 05:03:16;;;;;;;;;;;;;;;8.75;84.99;99957.98;106668;1263;61368;-88
2023/01/13 05:06:02;;;;;;;;;;;;;;;8.77;85.08;99952.92;106411;1270;61233;-86
2023/01/13 05:08:32;;;;;;;;;;;;;;;8.77;85.15;99951.20;106524;1269;75647;-82
2023/01/13 05:10:59;;;;;;;;;;;;;;;8.76;85.20;99953.61;106468;1270;124677;-84
2023/01/13 05:20:11;;;;;;;;;;;;;;;8.78;85.37;99951.72;106378;1270;61179;-86
2023/01/13 05:26:33;;;;;;;;;;;;;;;8.78;85.49;99954.17;105696;1279;67704;-89
2023/01/13 05:29:00;;;;;;;;;;;;;;;8.78;85.53;99959.94;105802;1275;124591;-84
2023/01/13 05:31:29;;;;;;;;;;;;;;;8.77;85.50;99957.66;106143;1275;61132;-84
2023/01/13 05:33:56;;;;;;;;;;;;;;;8.78;85.60;99959.95;105839;1280;124738;-85
2023/01/13 05:36:42;;;;;;;;;;;;;;;8.77;85.57;99959.41;105928;1274;74581;-88
2023/01/13 05:43:18;;;;;;;;;;;;;;;8.77;85.60;99962.03;106102;1271;66847;-86
2023/01/13 05:45:02;;;;;;;;;;;;;;;8.78;85.70;99967.80;106511;1270;59695;-88
2023/01/13 05:47:32;;;;;;;;;;;;;;;8.77;85.81;99968.86;106326;1270;123610;-84
2023/01/13 05:49:59;;;;;;;;;;;;;;;8.77;85.80;99970.78;106705;1270;73252;-82
2023/01/13 05:52:26;;;;;;;;;;;;;;;8.75;85.75;99970.04;106367;1270;125339;-85
2023/01/13 05:54:53;;;;;;;;;;;;;;;8.71;85.77;99970.13;106185;1270;71445;-85
2023/01/13 05:57:20;;;;;;;;;;;;;;;8.68;85.70;99978.65;107303;1259;62879;-83
2023/01/13 05:59:48;;;;;;;;;;;;;;;8.66;85.81;99979.49;107646;1260;125405;-83
2023/01/13 06:02:15;;;;;;;;;;;;;;;8.66;85.91;99979.48;107670;1259;74369;-83
2023/01/13 06:04:42;;;;;;;;;;;;;;;8.67;85.93;99984.77;107439;1259;124661;-84
2023/01/13 06:07:11;;;;;;;;;;;;;;;8.67;86.01;99982.64;107169;1259;72962;-85
2023/01/13 06:09:40;;;;;;;;;;;;;;;8.65;85.98;99983.84;106922;1259;124851;-88
2023/01/13 06:12:09;;;;;;;;;;;;;;;8.63;85.96;99985.19;107146;1259;61219;-90
2023/01/13 06:14:40;;;;;;;;;;;;;;;8.62;86.06;99993.39;107190;1260;73313;-87
2023/01/13 06:17:13;;;;;;;;;;;;;;;8.64;86.27;99996.23;107004;1260;124703;-86
2023/01/13 06:19:46;;;;;;;;;;;;;;;8.66;86.27;100003.11;106996;1259;72593;-85
2023/01/13 06:22:16;;;;;;;;;;;;;;;8.68;86.31;100007.14;107129;1260;124979;-86
2023/01/13 06:24:48;;;;;;;;;;;;;;;8.69;86.45;100014.54;107104;1258;61091;-89
2023/01/13 06:27:15;;;;;;;;;;;;;;;8.72;86.44;100015.11;107266;1262;74582;-88
2023/01/13 06:29:48;;;;;;;;;;;;;;;8.75;86.52;100019.36;107244;1259;124491;-85
2023/01/13 06:32:18;;;;;;;;;;;;;;;8.77;86.52;100020.98;107099;1260;71522;-85
2023/01/13 06:34:46;;;;;;;;;;;;;;;8.78;86.48;100022.56;106965;1261;124649;-84
2023/01/13 06:37:14;;;;;;;;;;;;;;;8.78;86.63;100025.90;107022;1260;59909;-85
2023/01/13 06:39:42;;;;;;;;;;;;;;;8.78;86.64;100025.02;106980;1264;124930;-85
2023/01/13 06:45:13;;;;;;;;;;;;;;;8.79;86.71;100022.60;107009;1259;72819;-87
2023/01/13 06:47:50;;;;;;;;;;;;;;;8.80;86.77;100024.02;106980;1260;124582;-87
2023/01/13 06:50:22;;;;;;;;;;;;;;;8.80;86.71;100019.80;107061;1259;59927;-87
2023/01/13 06:52:57;;;;;;;;;;;;;;;8.82;86.84;100019.86;107212;1261;124698;-87
2023/01/13 06:55:26;;;;;;;;;;;;;;;8.85;86.76;100020.96;107218;1259;66450;-87
2023/01/13 06:57:55;;;;;;;;;;;;;;;8.87;86.84;100021.71;107199;1260;125637;-87
2023/01/13 07:00:43;;;;;;;;;;;;;;;8.87;86.81;100024.86;107347;1261;59944;-86
2023/01/13 07:03:15;;;;;;;;;;;;;;;8.86;86.74;100020.11;107068;1258;61147;-87
2023/01/13 07:05:52;;;;;;;;;;;;;;;8.88;86.75;100021.55;106935;1259;124781;-87
2023/01/13 07:08:21;;;;;;;;;;;;;;;8.89;86.82;100018.96;106853;1259;66063;-87
2023/01/13 07:11:00;;;;;;;;;;;;;;;8.91;86.87;100020.20;106793;1260;124784;-87
2023/01/13 07:16:15;;;;;;;;;;;;;;;8.92;86.82;100021.64;107178;1259;124785;-87
2023/01/13 07:18:54;;;;;;;;;;;;;;;8.95;86.92;100019.41;106817;1260;74577;-87
2023/01/13 07:21:21;;;;;;;;;;;;;;;8.97;86.95;100023.14;106867;1260;64732;-87
2023/01/13 07:23:49;;;;;;;;;;;;;;;8.98;86.89;100028.23;107259;1259;71560;-87
2023/01/13 07:29:47;;;;;;;;;;;;;;;9.01;86.88;100038.43;106984;1259;125395;-87
2023/01/13 07:32:21;;;;;;;;;;;;;;;9.01;86.84;100034.57;107092;1259;74478;-88
2023/01/13 07:34:51;;;;;;;;;;;;;;;9.03;86.90;100036.72;107185;1259;124655;-88
2023/01/13 07:37:18;;;;;;;;;;;;;;;9.05;86.94;100043.08;107228;1259;70898;-88
2023/01/13 07:39:46;;;;;;;;;;;;;;;9.04;86.86;100044.26;107024;1259;124796;-87
2023/01/13 07:45:57;;;;;;;;;;;;;;;9.06;87.08;100049.55;106937;1260;124808;-87
2023/01/13 07:48:34;;;;;;;;;;;;;;;9.09;87.08;100052.60;107139;1258;65469;-87
2023/01/13 07:51:20;;;;;;;;;;;;;;;9.12;87.12;100052.66;107252;1258;71869;-87
2023/01/13 07:53:48;;;;;;;;;;;;;;;9.13;87.01;100049.35;106965;1259;124438;-88
2023/01/13 07:56:29;;;;;;;;;;;;;;;9.15;87.07;100050.42;107024;1259;61287;-87
2023/01/13 07:59:03;;;;;;;;;;;;;;;9.17;87.16;100050.30;107111;1259;124977;-87
2023/01/13 08:01:32;;;;;;;;;;;;;;;9.17;87.08;100050.81;107238;1258;65650;-87
2023/01/13 08:03:59;;;;;;;;;;;;;;;9.18;87.18;100052.77;107015;1259;125027;-88
2023/01/13 08:06:43;;;;;;;;;;;;;;;9.19;87.18;100052.27;107138;1258;61209;-88
2023/01/13 08:09:10;;;;;;;;;;;;;;;9.20;87.21;100056.84;107097;1259;61330;-88
2023/01/13 08:14:41;;;;;;;;;;;;;;;9.26;87.21;100061.49;107278;1262;67389;-87
2023/01/13 08:17:14;;;;;;;;;;;;;;;9.27;87.16;100060.11;107160;1259;125108;-88
2023/01/13 08:19:48;;;;;;;;;;;;;;;9.29;87.14;100060.69;107082;1258;61308;-87
2023/01/13 08:22:18;;;;;;;;;;;;;;;9.30;87.16;100060.19;107174;1258;124626;-88
2023/01/13 08:24:45;;;;;;;;;;;;;;;9.33;87.24;100060.77;107177;1264;73574;-87
2023/01/13 08:27:13;;;;;;;;;;;;;;;9.38;87.11;100060.14;107265;1259;66790;-88
2023/01/13 08:33:10;;;;;;;;;;;;;;;9.47;87.11;100055.77;107207;1259;59979;-88
2023/01/13 08:35:47;;;;;;;;;;;;;;;9.49;86.90;100055.61;107199;1258;124626;-87
2023/01/13 08:38:15;;;;;;;;;;;;;;;9.50;86.83;100056.86;107364;1258;75067;-88
2023/01/13 08:40:42;;;;;;;;;;;;;;;9.52;86.81;100059.02;107259;1259;124765;-87
2023/01/13 08:43:09;;;;;;;;;;;;;;;9.53;86.69;100053.76;107294;1261;71038;-88
2023/01/13 08:45:36;;;;;;;;;;;;;;;9.54;86.64;100059.92;107125;1262;124863;-88
2023/01/13 08:48:08;;;;;;;;;;;;;;;9.55;86.60;100063.09;107310;1260;60335;-88
2023/01/13 08:50:37;;;;;;;;;;;;;;;9.57;86.57;100076.26;106992;1258;74883;-87
2023/01/13 08:53:04;;;;;;;;;;;;;;;9.58;86.52;100084.16;106871;1259;125263;-86
2023/01/13 08:55:31;;;;;;;;;;;;;;;9.58;86.56;100088.38;107192;1260;73303;-86
2023/01/13 08:57:58;;;;;;;;;;;;;;;9.61;86.64;100085.79;107171;1259;124789;-86
2023/01/13 09:00:25;;;;;;;;;;;;;;;9.63;86.54;100089.66;107307;1261;60153;-86
2023/01/13 09:02:54;;;;;;;;;;;;;;;9.66;86.45;100094.11;107258;1260;74727;-88
2023/01/13 09:05:21;;;;;;;;;;;;;;;9.69;86.48;100097.68;106855;1259;124786;-88
2023/01/13 09:07:48;;;;;;;;;;;;;;;9.74;86.40;100104.93;107122;1259;71851;-88
2023/01/13 09:10:39;;;;;;;;;;;;;;;9.77;86.49;100100.80;106954;1259;124709;-88
2023/01/13 09:13:11;;;;;;;;;;;;;;;9.81;86.42;100097.89;107201;1259;60179;-88
2023/01/13 09:15:40;;;;;;;;;;;;;;;9.85;86.35;100098.15;107107;1259;124852;-87
2023/01/13 09:18:10;;;;;;;;;;;;;;;9.88;86.37;100093.99;107115;1258;67104;-87
2023/01/13 09:20:44;;;;;;;;;;;;;;;9.91;86.35;100096.13;106973;1259;72275;-87
2023/01/13 09:23:11;;;;;;;;;;;;;;;9.92;86.23;100098.08;107093;1259;124711;-85
2023/01/13 09:25:41;;;;;;;;;;;;;;;9.95;86.22;100095.34;107232;1259;61252;-85
2023/01/13 09:28:09;;;;;;;;;;;;;;;9.95;86.04;100093.02;106976;1260;124755;-86
2023/01/13 09:30:37;;;;;;;;;;;;;;;9.95;86.06;100096.21;107176;1258;65270;-86
2023/01/13 09:35:55;;;;;;;;;;;;;;;10.09;85.94;100092.92;107114;1258;61281;-88
2023/01/13 09:38:24;;;;;;;;;;;;;;;10.08;85.78;100096.94;107226;1258;61386;-86
2023/01/13 09:40:54;;;;;;;;;;;;;;;10.05;85.66;100100.92;107028;1259;124811;-86
2023/01/13 09:46:46;;;;;;;;;;;;;;;10.00;85.76;100103.63;107181;1259;125251;-87
2023/01/13 09:49:23;;;;;;;;;;;;;;;10.01;85.71;100102.42;107430;1259;61154;-87
2023/01/13 09:51:57;;;;;;;;;;;;;;;10.01;85.70;100099.27;106923;1259;124904;-88
2023/01/13 09:54:37;;;;;;;;;;;;;;;10.01;85.72;100102.25;106971;1258;72670;-88
2023/01/13 09:57:10;;;;;;;;;;;;;;;10.01;85.72;100104.36;107029;1259;65477;-88
2023/01/13 09:59:41;;;;;;;;;;;;;;;10.02;85.67;100105.44;106928;1262;125000;-88
2023/01/13 10:02:35;;;;;;;;;;;;;;;10.02;85.60;100106.48;106962;1258;59585;-88
2023/01/13 10:05:24;;;;;;;;;;;;;;;10.01;85.53;100107.17;107020;1258;124765;-88
2023/01/13 10:07:53;;;;;;;;;;;;;;;10.04;85.60;100106.69;107238;1259;73457;-88
2023/01/13 10:10:22;;;;;;;;;;;;;;;10.07;85.48;100104.63;107070;1259;124856;-88
2023/01/13 10:15:37;;;;;;;;;;;;;;;10.23;85.59;100097.88;106937;1259;124970;-88
2023/01/13 10:18:25;;;;;;;;;;;;;;;10.31;85.53;100091.37;107280;1260;61220;-88
2023/01/13 10:21:19;;;;;;;;;;;;;;;10.49;85.68;100093.76;107323;1259;72478;-86
2023/01/13 10:24:08;;;;;;;;;;;;;;;10.66;85.49;100095.75;106979;1259;124675;-86
2023/01/13 10:26:38;;;;;;;;;;;;;;;10.77;85.25;100092.73;107305;1258;73298;-86
2023/01/13 10:29:26;;;;;;;;;;;;;;;10.82;84.78;100094.73;107022;1258;125439;-86
2023/01/13 10:32:09;;;;;;;;;;;;;;;10.85;84.66;100094.25;107207;1259;61069;-86
2023/01/13 10:34:48;;;;;;;;;;;;;;;10.86;84.39;100090.05;107003;1259;124744;-86
2023/01/13 10:37:23;;;;;;;;;;;;;;;10.86;84.18;100091.47;107558;1259;67231;-86
2023/01/13 10:39:50;;;;;;;;;;;;;;;10.88;84.04;100093.95;107544;1259;125609;-86
2023/01/13 10:42:18;;;;;;;;;;;;;;;10.92;83.96;100093.29;107568;1263;59250;-86
2023/01/13 10:44:46;;;;;;;;;;;;;;;11.00;83.78;100093.04;107753;1261;59254;-88
2023/01/13 10:47:41;;;;;;;;;;;;;;;11.05;83.63;100084.52;107452;1259;124829;-88
2023/01/13 10:50:11;;;;;;;;;;;;;;;11.05;83.18;100080.48;107455;1259;65806;-88
2023/01/13 10:52:42;;;;;;;;;;;;;;;11.05;83.19;100082.73;107419;1262;72716;-88
2023/01/13 10:55:30;;;;;;;;;;;;;;;11.16;83.39;100080.07;107963;1259;59556;-87
2023/01/13 10:58:18;;;;;;;;;;;;;;;11.27;83.15;100077.20;107653;1259;60019;-88
2023/01/13 11:00:45;;;;;;;;;;;;;;;11.37;83.12;100071.00;107880;1259;74902;-88
2023/01/13 11:03:17;;;;;;;;;;;;;;;11.45;82.92;100067.91;107559;1259;67622;-88
2023/01/13 11:05:48;;;;;;;;;;;;;;;11.45;82.56;100060.73;107490;1261;124704;-88
2023/01/13 11:08:17;;;;;;;;;;;;;;;11.40;82.28;100055.23;107128;1258;61304;-88
2023/01/13 11:10:45;;;;;;;;;;;;;;;11.34;82.21;100052.88;107095;1258;123969;-88
2023/01/13 11:13:32;;;;;;;;;;;;;;;11.30;82.14;100051.79;107001;1258;74729;-88
2023/01/13 11:16:25;;;;;;;;;;;;;;;11.26;82.11;100052.80;107003;1259;125195;-89
2023/01/13 11:19:01;;;;;;;;;;;;;;;11.20;82.11;100059.04;106957;1258;73240;-89
2023/01/13 11:21:53;;;;;;;;;;;;;;;11.20;82.01;100053.25;107035;1263;61376;-87
2023/01/13 11:27:33;;;;;;;;;;;;;;;11.43;82.20;100048.94;107230;1263;75120;-89
2023/01/13 11:30:01;;;;;;;;;;;;;;;11.52;82.13;100043.20;107118;1259;123697;-89
2023/01/13 11:32:32;;;;;;;;;;;;;;;11.58;81.91;100047.50;107176;1259;71354;-89
2023/01/13 11:35:01;;;;;;;;;;;;;;;11.63;81.79;100058.78;107339;1259;124787;-87
2023/01/13 11:37:30;;;;;;;;;;;;;;;11.65;81.36;100061.98;107194;1259;59788;-89
2023/01/13 11:40:14;;;;;;;;;;;;;;;11.65;81.23;100064.60;106923;1259;125015;-87
2023/01/13 11:42:53;;;;;;;;;;;;;;;11.71;81.17;100067.30;107145;1258;67196;-87
2023/01/13 11:45:29;;;;;;;;;;;;;;;11.78;81.10;100075.98;106999;1259;71087;-87
2023/01/13 11:48:02;;;;;;;;;;;;;;;11.87;81.03;100082.58;107033;1258;124611;-87
2023/01/13 11:50:33;;;;;;;;;;;;;;;11.95;80.79;100087.77;107208;1258;61182;-87
2023/01/13 11:53:09;;;;;;;;;;;;;;;11.96;80.49;100083.55;107427;1258;124238;-87
2023/01/13 11:55:59;;;;;;;;;;;;;;;11.91;80.35;100078.77;107341;1259;65474;-87
2023/01/13 11:58:53;;;;;;;;;;;;;;;11.87;80.19;100083.80;107175;1258;124831;-86
2023/01/13 12:01:30;;;;;;;;;;;;;;;11.76;79.91;100082.29;107142;1262;61340;-85
2023/01/13 12:06:55;;;;;;;;;;;;;;;11.68;80.12;100087.13;107302;1259;74681;-87
2023/01/13 12:09:25;;;;;;;;;;;;;;;11.73;80.23;100085.95;107287;1258;66866;-85
2023/01/13 12:12:26;;;;;;;;;;;;;;;11.81;80.25;100086.19;107492;1259;124810;-87
2023/01/13 12:15:12;;;;;;;;;;;;;;;11.82;79.91;100088.15;107288;1259;60292;-85
2023/01/13 12:17:59;;;;;;;;;;;;;;;11.74;79.69;100099.49;107127;1259;125033;-85
2023/01/13 12:20:45;;;;;;;;;;;;;;;11.63;79.55;100093.94;107183;1259;73390;-86
2023/01/13 12:23:45;;;;;;;;;;;;;;;11.55;79.65;100083.66;107004;1258;125055;-86
2023/01/13 12:26:13;;;;;;;;;;;;;;;11.46;79.65;100081.81;107051;1259;71046;-88
2023/01/13 12:28:59;;;;;;;;;;;;;;;11.38;79.62;100076.98;106994;1258;124899;-87
2023/01/13 12:31:28;;;;;;;;;;;;;;;11.33;79.77;100072.89;106868;1259;61179;-88
2023/01/13 12:34:13;;;;;;;;;;;;;;;11.32;79.86;100072.52;106793;1259;125103;-89
2023/01/13 12:36:40;;;;;;;;;;;;;;;11.30;79.93;100093.23;107081;1259;65636;-89
2023/01/13 12:39:32;;;;;;;;;;;;;;;11.27;79.99;100095.32;107048;1259;71541;-90
2023/01/13 12:45:09;;;;;;;;;;;;;;;11.26;79.98;100086.68;107170;1258;59744;-89
2023/01/13 12:47:44;;;;;;;;;;;;;;;11.22;80.01;100079.09;107209;1258;124144;-89
2023/01/13 12:50:46;;;;;;;;;;;;;;;11.17;79.88;100073.94;107092;1259;66962;-89
2023/01/13 12:53:29;;;;;;;;;;;;;;;11.08;79.89;100070.33;106947;1259;124147;-89
2023/01/13 12:56:17;;;;;;;;;;;;;;;11.03;79.95;100075.88;107008;1259;59530;-88
2023/01/13 12:58:52;;;;;;;;;;;;;;;11.02;80.14;100089.39;107036;1259;124274;-88
2023/01/13 13:01:32;;;;;;;;;;;;;;;10.97;80.05;100092.30;107076;1258;74786;-88
2023/01/13 13:04:26;;;;;;;;;;;;;;;10.90;80.09;100094.66;106820;1259;124622;-89
2023/01/13 13:07:02;;;;;;;;;;;;;;;10.79;80.10;100095.77;107185;1258;71477;-89
2023/01/13 13:09:45;;;;;;;;;;;;;;;10.70;80.28;100092.12;107020;1258;61360;-89
2023/01/13 13:15:27;;;;;;;;;;;;;;;10.57;80.50;100085.09;107123;1259;73068;-89
2023/01/13 13:18:05;;;;;;;;;;;;;;;10.52;80.57;100077.14;106898;1259;124998;-89
2023/01/13 13:20:52;;;;;;;;;;;;;;;10.49;80.64;100075.86;107169;1259;72401;-90
2023/01/13 13:23:29;;;;;;;;;;;;;;;10.45;80.70;100076.16;107228;1259;125243;-89
2023/01/13 13:26:15;;;;;;;;;;;;;;;10.42;80.76;100083.83;107060;1259;61283;-89
2023/01/13 13:29:07;;;;;;;;;;;;;;;10.38;80.80;100093.23;106969;1259;124868;-88
2023/01/13 13:31:58;;;;;;;;;;;;;;;10.31;80.76;100092.06;107327;1258;65587;-88
2023/01/13 13:34:34;;;;;;;;;;;;;;;10.24;80.78;100086.85;107162;1259;125133;-87
2023/01/13 13:37:06;;;;;;;;;;;;;;;10.20;80.97;100083.98;107293;1259;61956;-86
2023/01/13 13:48:22;;;;;;;;;;;;;;;10.14;81.26;100080.39;107253;1259;124568;-87
2023/01/13 13:51:02;;;;;;;;;;;;;;;10.09;81.23;100076.43;107416;1258;60388;-87
2023/01/13 13:53:33;;;;;;;;;;;;;;;10.04;81.46;100088.47;107203;1258;125008;-87
2023/01/13 13:56:06;;;;;;;;;;;;;;;10.03;81.52;100082.48;107284;1260;74689;-87
2023/01/13 13:58:36;;;;;;;;;;;;;;;10.02;81.51;100089.67;107101;1259;124956;-84
2023/01/13 14:01:25;;;;;;;;;;;;;;;10.01;81.56;100089.11;107107;1259;72765;-87
2023/01/13 14:04:12;;;;;;;;;;;;;;;10.02;81.72;100098.41;107000;1258;125223;-86
2023/01/13 14:06:52;;;;;;;;;;;;;;;9.99;81.73;100104.69;106964;1259;61359;-87
2023/01/13 14:09:22;;;;;;;;;;;;;;;9.96;81.72;100109.18;107076;1259;74720;-87
2023/01/13 14:12:00;;;;;;;;;;;;;;;9.92;81.87;100112.97;107097;1259;124806;-87
2023/01/13 14:14:28;;;;;;;;;;;;;;;9.88;81.91;100113.80;107046;1259;72990;-86
2023/01/13 14:16:55;;;;;;;;;;;;;;;9.86;82.11;100112.35;107036;1259;124808;-86
2023/01/13 14:19:32;;;;;;;;;;;;;;;9.84;82.13;100108.63;107187;1262;61307;-84
2023/01/13 14:21:59;;;;;;;;;;;;;;;9.83;82.26;100106.15;107146;1259;124766;-85
2023/01/13 14:24:34;;;;;;;;;;;;;;;9.81;82.29;100110.48;107346;1259;67100;-85
2023/01/13 14:27:17;;;;;;;;;;;;;;;9.77;82.27;100123.57;107400;1263;71400;-84
2023/01/13 14:29:59;;;;;;;;;;;;;;;9.72;82.40;100127.69;107090;1263;124793;-85
2023/01/13 14:32:36;;;;;;;;;;;;;;;9.67;82.55;100125.86;107103;1258;60479;-85
2023/01/13 14:35:16;;;;;;;;;;;;;;;9.66;82.46;100134.06;107009;1259;125278;-85
2023/01/13 14:37:45;;;;;;;;;;;;;;;9.63;82.47;100133.46;107248;1259;66312;-85
2023/01/13 14:40:30;;;;;;;;;;;;;;;9.60;82.58;100135.00;107310;1259;125354;-85
2023/01/13 14:43:09;;;;;;;;;;;;;;;9.57;82.71;100137.58;107470;1259;61539;-85
2023/01/13 14:45:36;;;;;;;;;;;;;;;9.54;82.66;100133.48;107933;1259;61210;-84